Ocean Highway — H3IE — position and weather

sailwx.info

Track history (hours):
 
Tides and Currents Weather Stations Pressure Air Temp Water Temp Dewpoint Dewpoint Depression Visibility Wind Speed Wind Dir Waves Ship Positions

Ocean Highway

Last reported at 2017-Apr-28 02:03 UTC. Time now 2017-Apr-28 12:07 UTC.
Position N 01°14' E 104°01'.

Length 179.1 m; beam 32.2 m.

Type: Cargo ship. MMSI: 353951000.

Date/timePositionNaut miles runAvg speedWind from/ knotsBaromVisibWave heightAir tempDewpointWater temp
2017-Apr-28 02:03N 01°14' E 104°01'115.7
2017-Apr-28 01:59N 01°14' E 104°00'715.0
2017-Apr-28 01:30N 01°12' E 103°54'5 9.8
2017-Apr-28 01:00N 01°12' E 103°49'3 7.0
2017-Apr-28 00:30N 01°15' E 103°46'3 5.1
2017-Apr-28 00:00N 01°17' E 103°45'0 0.0
2017-Apr-27 23:29N 01°17' E 103°45'0 0.0
2017-Apr-27 22:59N 01°17' E 103°45'0 0.0
2017-Apr-27 22:26N 01°17' E 103°45'0 0.0
2017-Apr-27 21:59N 01°17' E 103°45'0 0.0
2017-Apr-27 21:29N 01°17' E 103°45'0 0.0
2017-Apr-27 20:59N 01°17' E 103°45'0 0.0
2017-Apr-27 20:29N 01°17' E 103°45'0 0.0
2017-Apr-27 19:59N 01°17' E 103°45'0 0.0
2017-Apr-27 19:29N 01°17' E 103°45'0 0.0
2017-Apr-27 18:59N 01°17' E 103°45'0 0.0
2017-Apr-27 18:29N 01°17' E 103°45'0 0.0
2017-Apr-27 17:59N 01°17' E 103°45'0 0.1
2017-Apr-27 17:29N 01°17' E 103°45'0 0.1
2017-Apr-27 16:59N 01°17' E 103°45'0 0.0
2017-Apr-27 16:29N 01°17' E 103°45'0 0.0
2017-Apr-27 15:59N 01°17' E 103°45'0 0.0
2017-Apr-27 15:29N 01°17' E 103°45'0 0.0
2017-Apr-27 15:01N 01°17' E 103°45'6 5.8
2017-Apr-27 14:01N 01°13' E 103°49'510.5
2017-Apr-27 13:30N 01°14' E 103°54'2 3.7
2017-Apr-27 13:01N 01°14' E 103°56'2 4.2
2017-Apr-27 12:30N 01°15' E 103°58'4 7.4
2017-Apr-27 12:01N 01°16' E 104°01'5 8.8
2017-Apr-27 11:29N 01°16' E 104°06'  
2017-Apr-23 10:43N 01°14' E 104°02'315.5
2017-Apr-23 10:30N 01°13' E 103°58'714.4
2017-Apr-23 10:01N 01°11' E 103°52'4 8.8
2017-Apr-23 09:31N 01°13' E 103°48'5 9.6
2017-Apr-23 09:00N 01°17' E 103°45'0 0.5
2017-Apr-23 08:28N 01°17' E 103°45'0 0.0
2017-Apr-23 07:52N 01°17' E 103°45'0 0.0
2017-Apr-23 07:28N 01°17' E 103°45'0 0.0
2017-Apr-23 06:58N 01°17' E 103°45'0 0.0
2017-Apr-23 06:25N 01°17' E 103°45'0 0.0
2017-Apr-23 05:58N 01°17' E 103°45'0 0.0
2017-Apr-23 05:28N 01°17' E 103°45'0 0.0
2017-Apr-23 04:58N 01°17' E 103°45'0 0.0
2017-Apr-23 04:28N 01°17' E 103°45'0 0.0
2017-Apr-23 03:58N 01°17' E 103°45'0 0.0
2017-Apr-23 03:28N 01°17' E 103°45'0 0.0
2017-Apr-23 02:58N 01°17' E 103°45'0 0.0
2017-Apr-23 02:28N 01°17' E 103°45'0 0.0
2017-Apr-23 01:58N 01°17' E 103°45'0 0.0
2017-Apr-23 01:28N 01°17' E 103°45'0 0.0
2017-Apr-23 00:58N 01°17' E 103°45'0 0.0
2017-Apr-23 00:28N 01°17' E 103°45'0 0.0
2017-Apr-22 23:58N 01°17' E 103°45'0 0.0
2017-Apr-22 23:28N 01°17' E 103°45'0 0.7
2017-Apr-22 23:00N 01°17' E 103°45'3 6.1
2017-Apr-22 22:30N 01°15' E 103°47'5 9.2
2017-Apr-22 22:00N 01°13' E 103°51'4 8.5
2017-Apr-22 21:30N 01°14' E 103°55'2 3.3
2017-Apr-22 21:00N 01°14' E 103°57'3 6.9
2017-Apr-22 20:30N 01°15' E 104°00'611.4
2017-Apr-22 19:58N 01°16' E 104°06'  
Track history (hours):
 
Tides and Currents Weather Stations Pressure Air Temp Water Temp Dewpoint Dewpoint Depression Visibility Wind Speed Wind Dir Waves Ship Positions

Ocean Highway

Last reported at 2017-Apr-28 02:03 UTC. Time now 2017-Apr-28 12:07 UTC.
Position N 01°14' E 104°01'.

Length 179.1 m; beam 32.2 m.

Type: Cargo ship. MMSI: 353951000.

Date/timePositionNaut miles runAvg speedWind from/ knotsBaromVisibWave heightAir tempDewpointWater temp
2017-Apr-28 02:03N 01°14' E 104°01'115.7
2017-Apr-28 01:59N 01°14' E 104°00'715.0
2017-Apr-28 01:30N 01°12' E 103°54'5 9.8
2017-Apr-28 01:00N 01°12' E 103°49'3 7.0
2017-Apr-28 00:30N 01°15' E 103°46'3 5.1
2017-Apr-28 00:00N 01°17' E 103°45'0 0.0
2017-Apr-27 23:29N 01°17' E 103°45'0 0.0
2017-Apr-27 22:59N 01°17' E 103°45'0 0.0
2017-Apr-27 22:26N 01°17' E 103°45'0 0.0
2017-Apr-27 21:59N 01°17' E 103°45'0 0.0
2017-Apr-27 21:29N 01°17' E 103°45'0 0.0
2017-Apr-27 20:59N 01°17' E 103°45'0 0.0
2017-Apr-27 20:29N 01°17' E 103°45'0 0.0
2017-Apr-27 19:59N 01°17' E 103°45'0 0.0
2017-Apr-27 19:29N 01°17' E 103°45'0 0.0
2017-Apr-27 18:59N 01°17' E 103°45'0 0.0
2017-Apr-27 18:29N 01°17' E 103°45'0 0.0
2017-Apr-27 17:59N 01°17' E 103°45'0 0.1
2017-Apr-27 17:29N 01°17' E 103°45'0 0.1
2017-Apr-27 16:59N 01°17' E 103°45'0 0.0
2017-Apr-27 16:29N 01°17' E 103°45'0 0.0
2017-Apr-27 15:59N 01°17' E 103°45'0 0.0
2017-Apr-27 15:29N 01°17' E 103°45'0 0.0
2017-Apr-27 15:01N 01°17' E 103°45'6 5.8
2017-Apr-27 14:01N 01°13' E 103°49'510.5
2017-Apr-27 13:30N 01°14' E 103°54'2 3.7
2017-Apr-27 13:01N 01°14' E 103°56'2 4.2
2017-Apr-27 12:30N 01°15' E 103°58'4 7.4
2017-Apr-27 12:01N 01°16' E 104°01'5 8.8
2017-Apr-27 11:29N 01°16' E 104°06'  
2017-Apr-23 10:43N 01°14' E 104°02'315.5
2017-Apr-23 10:30N 01°13' E 103°58'714.4
2017-Apr-23 10:01N 01°11' E 103°52'4 8.8
2017-Apr-23 09:31N 01°13' E 103°48'5 9.6
2017-Apr-23 09:00N 01°17' E 103°45'0 0.5
2017-Apr-23 08:28N 01°17' E 103°45'0 0.0
2017-Apr-23 07:52N 01°17' E 103°45'0 0.0
2017-Apr-23 07:28N 01°17' E 103°45'0 0.0
2017-Apr-23 06:58N 01°17' E 103°45'0 0.0
2017-Apr-23 06:25N 01°17' E 103°45'0 0.0
2017-Apr-23 05:58N 01°17' E 103°45'0 0.0
2017-Apr-23 05:28N 01°17' E 103°45'0 0.0
2017-Apr-23 04:58N 01°17' E 103°45'0 0.0
2017-Apr-23 04:28N 01°17' E 103°45'0 0.0
2017-Apr-23 03:58N 01°17' E 103°45'0 0.0
2017-Apr-23 03:28N 01°17' E 103°45'0 0.0
2017-Apr-23 02:58N 01°17' E 103°45'0 0.0
2017-Apr-23 02:28N 01°17' E 103°45'0 0.0
2017-Apr-23 01:58N 01°17' E 103°45'0 0.0
2017-Apr-23 01:28N 01°17' E 103°45'0 0.0
2017-Apr-23 00:58N 01°17' E 103°45'0 0.0
2017-Apr-23 00:28N 01°17' E 103°45'0 0.0
2017-Apr-22 23:58N 01°17' E 103°45'0 0.0
2017-Apr-22 23:28N 01°17' E 103°45'0 0.7
2017-Apr-22 23:00N 01°17' E 103°45'3 6.1
2017-Apr-22 22:30N 01°15' E 103°47'5 9.2
2017-Apr-22 22:00N 01°13' E 103°51'4 8.5
2017-Apr-22 21:30N 01°14' E 103°55'2 3.3
2017-Apr-22 21:00N 01°14' E 103°57'3 6.9
2017-Apr-22 20:30N 01°15' E 104°00'611.4
2017-Apr-22 19:58N 01°16' E 104°06'  

Dump ship's entire track history